• Join FlightAware (Why Join?)
  • Login
  • US Flag 
07:55PM EDT


 

Airport Tracker/Info


-or-


 

Live Flight TrackerFlight Track Log ✈ GJS3657 ✈ 22-Jun-2013 ✈ KORD - KRIC

Flight Track Log - Related Links

Times and Time Zones

All times are in EDT time to prevent confusion due to time zone crossing. See the GJS3657 flight status page for this flight to view local times or setup timezone preferences in your user account.

Time Position Orientation Groundspeed Altitude Reporting Facility
EDT Latitude Longitude Course Direction KTS MPH feet Rate Location/Type
01:31PM 42.0167 -87.9333 166° South 178 205 2,200  Level Chicago TRACON
01:32PM 41.9833 -87.8667 124° Southeast 236 272 3,800 1,560 Climbing Chicago TRACON
01:33PM 41.9475 -87.8133 132° Southeast 247 284 4,900 660 Climbing Chicago Center
01:34PM 41.8012 -87.3987 153° Southeast  Level Estimated
01:34PM 41.8711 -87.7844 164° South 280 322 5,000  Level Chicago Center
01:35PM 41.7038 -87.4501 202° Southwest  Level FlightAware Approximate
01:35PM 41.7942 -87.7703 172° South 282 325 5,200  Level Chicago Center
01:36PM 41.6595 -87.3231 166° South  Level Estimated
01:36PM 41.7167 -87.7583 173° South 285 328 8,000  Level Chicago Center
01:37PM 41.6154 -87.1972 166° South  Level Estimated
01:37PM 41.6425 -87.7233 161° South 301 346 10,300  Level Chicago Center
01:38PM 41.5656 -87.6697 152° Southeast 311 358 12,400 2,040 Climbing Chicago Center
01:39PM 41.4861 -87.6144 152° Southeast 319 367 14,600 1,860 Climbing Chicago Center
01:40PM 41.3764 -87.5650 161° South 354 407 16,300 1,500 Climbing Chicago Center
01:41PM 41.2756 -87.5383 169° South 375 432 17,700 1,260 Climbing Chicago Center
01:42PM 41.1739 -87.4800 157° South 399 459 19,000 1,320 Climbing Chicago Center
01:43PM 41.0667 -87.4225 158° South 413 475 20,500 1,680 Climbing Chicago Center
01:44PM 40.9625 -87.3642 157° South 411 473 22,500 1,920 Climbing Chicago Center
01:45PM 40.8625 -87.3072 157° South 400 460 24,500 1,680 Climbing Chicago Center
01:46PM 40.7525 -87.2283 151° Southeast 388 447 26,000 1,080 Climbing Chicago Center
01:47PM 40.6781 -87.1211 132° Southeast 397 457 26,800 780 Climbing Chicago Center
01:48PM 40.5997 -87.0067 132° Southeast 414 476 27,700 780 Climbing Chicago Center
01:49PM 40.5200 -86.8919 132° Southeast 424 488 28,500 720 Climbing Chicago Center
01:50PM 40.4389 -86.7764 133° Southeast 431 496 29,300 780 Climbing Chicago Center
01:51PM 40.3575 -86.6603 133° Southeast 433 498 30,200 780 Climbing Chicago Center
01:52PM 40.2761 -86.5428 132° Southeast 435 501 30,900 960 Climbing Chicago Center
01:53PM 40.1953 -86.4264 132° Southeast 433 498 32,200 1,380 Climbing Chicago Center
01:55PM 40.1008 -86.2889 132° Southeast 424 488 33,800 1,560 Climbing Chicago Center
01:55PM 40.0522 -86.2233 134° Southeast 415 478 34,800 840 Climbing Indianapolis Center
01:56PM 39.9750 -86.1144 133° Southeast 407 468 35,200 420 Climbing Indianapolis Center
01:57PM 39.8869 -86.0136 139° Southeast 420 483 35,700 540 Climbing Indianapolis Center
01:58PM 39.7919 -85.9219 143° Southeast 420 483 36,400 600 Climbing Indianapolis Center
01:59PM 39.6981 -85.8322 144° Southeast 416 479 37,000 240 Climbing Indianapolis Center
02:00PM 39.6028 -85.7442 145° Southeast 418 481 37,000  Level Indianapolis Center
02:01PM 39.5081 -85.6575 145° Southeast 417 480 37,000  Level Indianapolis Center
02:02PM 39.4111 -85.5714 146° Southeast 421 484 37,000  Level Indianapolis Center
02:03PM 39.3144 -85.4872 146° Southeast 420 483 37,000  Level Indianapolis Center
02:04PM 39.2164 -85.4042 147° Southeast 421 484 37,000  Level Indianapolis Center
02:05PM 39.1336 -85.2708 129° Southeast 404 465 37,000  Level Indianapolis Center
02:06PM 39.1056 -85.1336 105° East 397 457 37,000  Level Indianapolis Center
02:07PM 39.0756 -84.9961 106° East 399 459 37,000  Level Indianapolis Center
02:08PM 39.0478 -84.8631 105° East 405 466 37,000  Level Indianapolis Center
02:09PM 39.0181 -84.7219 105° East 406 467 37,000  Level Indianapolis Center
02:11PM 38.9833 -84.5564 105° East 408 470 37,000  Level Indianapolis Center
02:12PM 38.9525 -84.4158 106° East 407 468 37,000  Level Indianapolis Center
02:13PM 38.9214 -84.2739 106° East 409 471 37,000  Level Indianapolis Center
02:14PM 38.8906 -84.1319 106° East 409 471 37,000  Level Indianapolis Center
02:15PM 38.8606 -83.9914 105° East 408 470 37,000  Level Indianapolis Center
02:16PM 38.8297 -83.8494 106° East 409 471 37,000  Level Indianapolis Center
02:17PM 38.7989 -83.7086 106° East 409 471 37,000  Level Indianapolis Center
02:18PM 38.7672 -83.5672 106° East 410 472 37,000  Level Indianapolis Center
02:19PM 38.7356 -83.4278 106° East 407 468 37,000  Level Indianapolis Center
02:20PM 38.6983 -83.2628 106° East 409 471 37,000  Level Indianapolis Center
02:21PM 38.6711 -83.1386 106° East 408 470 37,000  Level Indianapolis Center
02:22PM 38.6364 -82.9869 106° East 405 466 37,000  Level Indianapolis Center
02:23PM 38.6044 -82.8469 106° East 408 470 37,000 -120 Level Indianapolis Center
02:24PM 38.5714 -82.7075 107° East 409 471 36,800 -720 Descending Indianapolis Center
02:25PM 38.5394 -82.5697 106° East 406 467 35,600 -1,200 Descending Indianapolis Center
02:26PM 38.5033 -82.4172 107° East 411 473 34,400 -1,140 Descending Indianapolis Center
02:27PM 38.4703 -82.2772 107° East 412 474 33,300 -1,080 Descending Indianapolis Center
02:28PM 38.4369 -82.1356 107° East 416 479 32,200 -1,080 Descending Indianapolis Center
02:29PM 38.4028 -81.9933 107° East 422 486 31,100 -1,200 Descending Indianapolis Center
02:30PM 38.3683 -81.8478 107° East 430 495 29,800 -1,560 Descending Indianapolis Center
02:31PM 38.3336 -81.6647 104° East 448 516 28,000 -1,620 Descending Indianapolis Center
02:32PM 38.3083 -81.5067 101° East 458 527 26,500 -1,500 Descending Indianapolis Center
02:33PM 38.2822 -81.3464 102° East 466 536 25,000 -1,500 Descending Indianapolis Center
02:34PM 38.2572 -81.1872 101° East 463 533 23,500 -1,020 Descending Indianapolis Center
02:35PM 38.2319 -81.0300 102° East 457 526 23,000 -300 Descending Indianapolis Center
02:36PM 38.2072 -80.8783 102° East 442 509 23,000  Level Indianapolis Center
02:37PM 38.1769 -80.6975 102° East 437 503 23,000  Level Indianapolis Center
02:38PM 38.1569 -80.5828 102° East 438 504 23,000  Level Washington Center
02:39PM 38.1319 -80.4308 102° East 438 504 23,000 -360 Level Washington Center
02:40PM 38.1067 -80.2786 102° East 438 504 22,300 -1,020 Descending Washington Center
02:41PM 38.0811 -80.1344 103° East 432 497 21,000 -660 Descending Washington Center
02:42PM 38.0608 -80.0042 101° East 420 483 21,000  Level Washington Center
02:43PM 38.0350 -79.8550 102° East 420 483 21,000  Level Washington Center
02:44PM 38.0108 -79.7086 102° East 420 483 21,000  Level Washington Center
02:45PM 37.9847 -79.5594 102° East 420 483 21,000  Level Washington Center
02:46PM 37.9581 -79.4106 103° East 425 489 21,000  Level Washington Center
02:47PM 37.9281 -79.2433 103° East 435 501 21,000  Level Washington Center
02:48PM 37.8989 -79.0944 104° East 435 501 21,000 -240 Level Washington Center
02:49PM 37.8761 -78.9433 101° East 435 501 20,600 -1,620 Descending Washington Center
02:50PM 37.8553 -78.7925 100° East 435 501 17,800 -2,520 Descending Washington Center
02:51PM 37.8339 -78.6575 101° East 415 478 15,700 -2,280 Descending Washington Center
02:52PM 37.8158 -78.5464 102° East 380 437 13,400 -2,040 Descending Washington Center
02:53PM 37.7978 -78.4300 101° East 351 404 11,600 -1,500 Descending Washington Center
02:54PM 37.7833 -78.3244 100° East 321 369 10,400 -1,320 Descending Washington Center
02:55PM 37.7708 -78.2294 99° East 296 341 9,000 -720 Descending Washington Center
02:56PM 37.7522 -78.1342 104° East 277 319 9,000  Level Washington Center
02:57PM 37.7375 -78.0392 101° East 277 319 9,000  Level Washington Center
02:58PM 37.7186 -77.9336 103° East 277 319 9,000 -600 Level Washington Center
02:59PM 37.6975 -77.8383 106° East 277 319 7,800 -1,560 Descending Washington Center
03:00PM 37.6825 -77.7436 101° East 277 319 6,000 -1,620 Descending Washington Center
03:01PM 37.6656 -77.6511 103° East 277 319 4,600 -1,320 Descending Washington Center
03:02PM 37.6481 -77.5642 104° East 261 300 3,400 -840 Descending Washington Center
03:03PM 37.6139 -77.4925 121° Southeast 248 285 3,000 -420 Descending Washington Center